Time;durP1;ratioP1;P1;durP2;ratioP2;P2;SDS_P1;SDS_P2;PMS_P1;PMS_P2;Temp;Humidity;BMP_temperature;BMP_pressure;BME280_temperature;BME280_humidity;BME280_pressure;Samples;Min_cycle;Max_cycle;Signal;HPM_P1;HPM_P2
2023/01/07 00:01:12;;;;;;;6.90;6.70;;;8.10;99.90;;;;;;5014409;28;20037;-72
2023/01/07 00:03:38;;;;;;;6.90;6.70;;;8.00;99.90;;;;;;5014494;28;20230;-72
2023/01/07 00:06:06;;;;;;;7.30;7.10;;;8.10;99.90;;;;;;4996778;28;20029;-72
2023/01/07 00:08:34;;;;;;;7.32;7.13;;;8.10;99.90;;;;;;5013724;28;20415;-72
2023/01/07 00:11:05;;;;;;;7.40;7.20;;;8.00;99.90;;;;;;5014316;28;20503;-72
2023/01/07 00:13:31;;;;;;;6.60;6.40;;;8.00;99.90;;;;;;5014213;28;20107;-72
2023/01/07 00:15:58;;;;;;;7.85;7.55;;;8.00;99.90;;;;;;5014095;28;20049;-72
2023/01/07 00:18:23;;;;;;;6.70;6.50;;;8.00;99.90;;;;;;5014250;28;20029;-72
2023/01/07 00:20:49;;;;;;;6.90;6.70;;;8.00;99.90;;;;;;4994492;28;20373;-72
2023/01/07 00:23:15;;;;;;;7.43;7.20;;;7.90;99.90;;;;;;4994669;28;20026;-72
2023/01/07 00:25:41;;;;;;;6.18;5.97;;;7.90;99.90;;;;;;4994840;28;20118;-72
2023/01/07 00:28:06;;;;;;;6.50;6.30;;;7.90;99.90;;;;;;4976763;28;20125;-72
2023/01/07 00:30:32;;;;;;;7.10;6.90;;;7.90;99.90;;;;;;4994296;28;20032;-72
2023/01/07 00:35:29;;;;;;;7.28;7.07;;;7.90;99.90;;;;;;5001576;28;20036;-72
2023/01/07 00:37:55;;;;;;;6.53;6.32;;;7.90;99.90;;;;;;5013653;28;20108;-72
2023/01/07 00:40:21;;;;;;;7.00;6.80;;;7.90;99.90;;;;;;5013722;28;20029;-73
2023/01/07 00:43:00;;;;;;;6.85;6.65;;;7.90;99.90;;;;;;5013771;28;20022;-72
2023/01/07 00:45:28;;;;;;;6.50;6.30;;;7.90;99.90;;;;;;5014197;28;20024;-73
2023/01/07 00:47:53;;;;;;;6.47;6.28;;;7.90;99.90;;;;;;5000068;28;20024;-72
2023/01/07 00:50:25;;;;;;;8.20;7.82;;;7.90;99.90;;;;;;5013613;28;20030;-72
2023/01/07 00:52:52;;;;;;;6.55;6.35;;;7.90;99.90;;;;;;5001240;28;20317;-72
2023/01/07 00:55:17;;;;;;;6.85;6.65;;;7.90;99.90;;;;;;5005502;28;20085;-73
2023/01/07 00:57:43;;;;;;;6.45;6.25;;;7.80;99.90;;;;;;4994403;28;20413;-74
2023/01/07 01:00:11;;;;;;;6.70;6.50;;;7.80;99.90;;;;;;5015532;28;20278;-73
2023/01/07 01:02:37;;;;;;;6.80;6.60;;;7.80;99.90;;;;;;4996621;28;20484;-73
2023/01/07 01:05:03;;;;;;;6.20;6.00;;;7.80;99.90;;;;;;4995218;28;20042;-73
2023/01/07 01:07:29;;;;;;;6.50;6.30;;;7.80;99.90;;;;;;4988568;28;20018;-73
2023/01/07 01:09:54;;;;;;;7.03;6.82;;;7.80;99.90;;;;;;4996434;28;20041;-73
2023/01/07 01:12:20;;;;;;;7.13;6.93;;;7.80;99.90;;;;;;4993562;28;20022;-73
2023/01/07 01:14:45;;;;;;;6.50;6.30;;;7.80;99.90;;;;;;4979937;28;20400;-73
2023/01/07 01:17:11;;;;;;;4.63;4.53;;;7.80;99.90;;;;;;4976549;28;20388;-73
2023/01/07 01:19:36;;;;;;;6.20;6.00;;;7.80;99.90;;;;;;4992711;28;20081;-73
2023/01/07 01:22:02;;;;;;;6.70;6.50;;;7.90;99.90;;;;;;4999653;28;20026;-74
2023/01/07 01:24:28;;;;;;;6.00;5.80;;;7.90;99.90;;;;;;5000399;28;20019;-73
2023/01/07 01:26:53;;;;;;;6.40;6.20;;;7.90;99.90;;;;;;4975443;28;20467;-73
2023/01/07 01:29:19;;;;;;;6.40;6.20;;;7.90;99.90;;;;;;4993376;28;20542;-73
2023/01/07 01:31:44;;;;;;;6.10;5.90;;;7.90;99.90;;;;;;4995595;28;20070;-72
2023/01/07 01:34:10;;;;;;;6.00;5.80;;;7.90;99.90;;;;;;5007079;28;20472;-73
2023/01/07 01:36:37;;;;;;;5.72;5.53;;;8.00;99.90;;;;;;4992990;28;20026;-73
2023/01/07 01:39:03;;;;;;;6.72;6.53;;;8.00;99.90;;;;;;4992828;28;20022;-72
2023/01/07 01:41:29;;;;;;;6.78;6.57;;;7.90;99.90;;;;;;4992872;28;20029;-73
2023/01/07 01:43:55;;;;;;;6.30;6.10;;;7.90;99.90;;;;;;4993133;28;20030;-72
2023/01/07 01:46:21;;;;;;;6.35;6.15;;;7.90;99.90;;;;;;4992974;28;20025;-73
2023/01/07 01:48:52;;;;;;;6.70;6.50;;;7.90;99.90;;;;;;4975217;28;20026;-73
2023/01/07 01:51:21;;;;;;;6.70;6.50;;;7.90;99.90;;;;;;4992986;28;20030;-74
2023/01/07 01:53:47;;;;;;;6.20;6.00;;;7.90;99.90;;;;;;4992806;28;20042;-73
2023/01/07 01:56:18;;;;;;;6.35;6.15;;;7.90;99.90;;;;;;4993173;28;20073;-73
2023/01/07 01:58:49;;;;;;;6.10;5.90;;;7.90;99.90;;;;;;4976438;28;20117;-74
2023/01/07 02:01:15;;;;;;;7.85;7.55;;;7.90;99.90;;;;;;4995359;28;20050;-73
2023/01/07 02:03:41;;;;;;;6.60;6.40;;;7.90;99.90;;;;;;4994766;28;20023;-73
2023/01/07 02:06:17;;;;;;;6.47;6.28;;;7.90;99.90;;;;;;5010550;28;20446;-73
2023/01/07 02:08:42;;;;;;;6.40;6.20;;;7.90;99.90;;;;;;4999042;28;20023;-73
2023/01/07 02:11:47;;;;;;;6.53;6.32;;;7.90;99.90;;;;;;4984970;28;20068;-73
2023/01/07 02:14:35;;;;;;;6.10;5.90;;;7.80;99.90;;;;;;4983580;28;20079;-73
2023/01/07 02:17:35;;;;;;;6.47;6.28;;;7.90;99.90;;;;;;5012129;28;20026;-73
2023/01/07 02:20:13;;;;;;;6.40;6.20;;;7.90;99.90;;;;;;4983980;28;20037;-73
2023/01/07 02:22:39;;;;;;;6.85;6.65;;;7.90;99.90;;;;;;5012161;28;20026;-73
2023/01/07 02:25:20;;;;;;;6.65;6.45;;;7.90;99.90;;;;;;4994497;28;20634;-73
2023/01/07 02:28:11;;;;;;;6.72;6.53;;;7.90;99.90;;;;;;5012269;28;20097;-73
2023/01/07 02:31:00;;;;;;;6.10;5.90;;;7.90;99.90;;;;;;4992427;28;20113;-73
2023/01/07 02:33:34;;;;;;;4.82;4.65;;;7.90;99.90;;;;;;4998235;28;20049;-72
2023/01/07 02:36:26;;;;;;;5.53;5.32;;;7.90;99.90;;;;;;4980335;28;20097;-74
2023/01/07 02:38:55;;;;;;;5.50;5.30;;;7.90;99.90;;;;;;4952331;28;20121;-72
2023/01/07 02:41:55;;;;;;;5.15;4.95;;;7.90;99.90;;;;;;4992526;28;20031;-72
2023/01/07 02:44:47;;;;;;;5.97;5.78;;;7.90;99.90;;;;;;4974905;28;20030;-73
2023/01/07 02:47:24;;;;;;;5.30;5.10;;;7.90;99.90;;;;;;4991451;28;20500;-74
2023/01/07 02:49:51;;;;;;;4.60;4.50;;;8.00;99.90;;;;;;4974912;28;20031;-74
2023/01/07 02:52:21;;;;;;;5.03;4.82;;;7.90;99.90;;;;;;4991821;28;20077;-74
2023/01/07 02:55:20;;;;;;;5.82;5.63;;;7.90;99.90;;;;;;4992251;28;20026;-75
2023/01/07 02:58:13;;;;;;;5.22;5.03;;;7.80;99.90;;;;;;4998829;28;20042;-73
2023/01/07 03:00:59;;;;;;;5.00;4.80;;;7.80;99.90;;;;;;5011462;28;20026;-73
2023/01/07 03:03:50;;;;;;;5.40;5.20;;;7.80;99.90;;;;;;5011923;28;20022;-72
2023/01/07 03:06:53;;;;;;;6.03;5.82;;;7.80;99.90;;;;;;5009357;28;20488;-75
2023/01/07 03:09:18;;;;;;;5.90;5.70;;;7.70;99.90;;;;;;4992115;28;20030;-74
2023/01/07 03:11:56;;;;;;;5.20;5.00;;;7.70;99.90;;;;;;4992128;28;20030;-74
2023/01/07 03:14:30;;;;;;;5.20;5.00;;;7.70;99.90;;;;;;4992026;28;20058;-74
2023/01/07 03:17:01;;;;;;;5.93;5.72;;;7.70;99.90;;;;;;4991907;28;20041;-75
2023/01/07 03:19:31;;;;;;;5.68;5.47;;;7.70;99.90;;;;;;4974259;28;20038;-73
2023/01/07 03:21:59;;;;;;;5.65;5.45;;;7.80;99.90;;;;;;4992030;28;20021;-73
2023/01/07 03:24:26;;;;;;;5.45;5.25;;;7.80;99.90;;;;;;4974378;28;20022;-73
2023/01/07 03:26:57;;;;;;;5.30;5.10;;;7.80;99.90;;;;;;4991632;28;20022;-73
2023/01/07 03:29:22;;;;;;;5.30;5.10;;;7.80;99.90;;;;;;4974479;28;20042;-73
2023/01/07 03:32:22;;;;;;;5.82;5.63;;;7.80;99.90;;;;;;4991592;28;20027;-74
2023/01/07 03:34:47;;;;;;;5.88;5.68;;;7.80;99.90;;;;;;4960176;28;20030;-73
2023/01/07 03:37:16;;;;;;;5.47;5.28;;;7.80;99.90;;;;;;4974217;28;20030;-73
2023/01/07 03:39:43;;;;;;;5.70;5.50;;;7.80;99.90;;;;;;4991876;28;20066;-74
2023/01/07 03:44:55;;;;;;;5.82;5.63;;;7.90;99.90;;;;;;4995451;28;20178;-74
2023/01/07 03:47:22;;;;;;;6.07;5.88;;;7.90;99.90;;;;;;4995130;28;20157;-75
2023/01/07 03:49:48;;;;;;;4.90;4.70;;;7.80;99.90;;;;;;4994960;28;20022;-73
2023/01/07 03:52:13;;;;;;;5.70;5.50;;;7.80;99.90;;;;;;4994871;28;20037;-74
2023/01/07 03:54:39;;;;;;;5.55;5.35;;;7.80;99.90;;;;;;4995032;28;20026;-72
2023/01/07 03:57:04;;;;;;;5.40;5.20;;;7.80;99.90;;;;;;4994882;28;20038;-73
2023/01/07 03:59:30;;;;;;;5.30;5.10;;;7.80;99.90;;;;;;4995780;28;20083;-72
2023/01/07 04:01:56;;;;;;;5.38;5.18;;;7.80;99.90;;;;;;5014303;28;20022;-72
2023/01/07 04:04:21;;;;;;;5.13;4.93;;;7.80;99.90;;;;;;5014299;28;20458;-72
2023/01/07 04:06:47;;;;;;;5.15;4.95;;;7.80;99.90;;;;;;5007477;28;20035;-74
2023/01/07 04:09:20;;;;;;;5.38;5.18;;;7.80;99.90;;;;;;4977219;28;20030;-74
2023/01/07 04:11:46;;;;;;;5.65;5.45;;;7.70;99.90;;;;;;4994732;28;20552;-73
2023/01/07 04:14:12;;;;;;;4.80;4.70;;;7.70;99.90;;;;;;4994591;28;20194;-73
2023/01/07 04:16:37;;;;;;;5.45;5.25;;;7.60;99.90;;;;;;4977232;28;20427;-73
2023/01/07 04:19:03;;;;;;;5.53;5.32;;;7.70;99.90;;;;;;4994239;28;20503;-73
2023/01/07 04:21:29;;;;;;;5.65;5.45;;;7.70;99.90;;;;;;4994809;28;20492;-73
2023/01/07 04:23:54;;;;;;;5.22;5.03;;;7.70;99.90;;;;;;4976816;28;20077;-73
2023/01/07 04:26:20;;;;;;;5.82;5.63;;;7.70;99.90;;;;;;4994432;28;20037;-73
2023/01/07 04:28:45;;;;;;;5.10;4.90;;;7.70;99.90;;;;;;4994102;28;20097;-73
2023/01/07 04:31:11;;;;;;;5.50;5.30;;;7.70;99.90;;;;;;4994396;28;20053;-73
2023/01/07 04:33:37;;;;;;;5.63;5.43;;;7.60;99.90;;;;;;4994118;28;20062;-74
2023/01/07 04:36:03;;;;;;;5.50;5.30;;;7.60;99.90;;;;;;4977067;28;20085;-73
2023/01/07 04:38:28;;;;;;;5.35;5.15;;;7.60;99.90;;;;;;4993815;28;20089;-73
2023/01/07 04:40:54;;;;;;;5.43;5.22;;;7.70;99.90;;;;;;5002586;28;20054;-74
2023/01/07 04:43:19;;;;;;;5.10;4.90;;;7.70;99.90;;;;;;4998645;28;20062;-73
2023/01/07 04:45:45;;;;;;;4.80;4.60;;;7.70;99.90;;;;;;5001806;28;20384;-73
2023/01/07 04:48:10;;;;;;;5.50;5.30;;;7.70;99.90;;;;;;5010750;28;20435;-73
2023/01/07 04:50:36;;;;;;;4.82;4.68;;;7.60;99.90;;;;;;5003580;28;20045;-73
2023/01/07 04:53:01;;;;;;;5.28;5.07;;;7.70;99.90;;;;;;4993100;28;20042;-73
2023/01/07 04:55:27;;;;;;;5.53;5.32;;;7.70;99.90;;;;;;4993889;28;20022;-73
2023/01/07 04:57:52;;;;;;;5.25;5.05;;;7.70;99.90;;;;;;5009259;28;20022;-73
2023/01/07 05:00:18;;;;;;;5.45;5.25;;;7.70;99.90;;;;;;5001155;28;20083;-73
2023/01/07 05:02:43;;;;;;;5.53;5.32;;;7.70;99.90;;;;;;5013067;28;20152;-73
2023/01/07 05:05:09;;;;;;;6.13;5.93;;;7.70;99.90;;;;;;5013316;28;20026;-73
2023/01/07 05:07:35;;;;;;;4.88;4.68;;;7.70;99.90;;;;;;5000309;28;20022;-73
2023/01/07 05:10:00;;;;;;;5.00;4.80;;;7.70;99.90;;;;;;4994019;28;20465;-73
2023/01/07 05:12:26;;;;;;;5.63;5.43;;;7.70;99.90;;;;;;4993525;28;20105;-72
2023/01/07 05:14:51;;;;;;;5.28;5.07;;;7.70;99.90;;;;;;4993470;28;20105;-73
2023/01/07 05:17:17;;;;;;;5.13;4.93;;;7.70;99.90;;;;;;4993169;28;20030;-73
2023/01/07 05:19:42;;;;;;;4.80;4.63;;;7.60;99.90;;;;;;4990850;28;20046;-73
2023/01/07 05:22:08;;;;;;;5.20;5.00;;;7.50;99.90;;;;;;4999536;28;20068;-73
2023/01/07 05:24:33;;;;;;;5.70;5.50;;;7.60;99.90;;;;;;5006574;28;20062;-72
2023/01/07 05:26:59;;;;;;;6.65;6.45;;;7.50;99.90;;;;;;5001406;28;20050;-73
2023/01/07 05:29:25;;;;;;;5.53;5.32;;;7.50;99.90;;;;;;4975726;28;20035;-74
2023/01/07 05:31:50;;;;;;;5.18;4.97;;;7.60;99.90;;;;;;4993110;28;20033;-74
2023/01/07 05:34:16;;;;;;;6.47;6.28;;;7.60;99.90;;;;;;4993113;28;20058;-74
2023/01/07 05:36:41;;;;;;;4.78;4.63;;;7.50;99.90;;;;;;4993095;28;20058;-74
2023/01/07 05:39:07;;;;;;;5.05;4.85;;;7.50;99.90;;;;;;4992739;28;20057;-75
2023/01/07 05:41:32;;;;;;;5.00;4.80;;;7.40;99.90;;;;;;4975552;28;20538;-75
2023/01/07 05:43:58;;;;;;;5.05;4.85;;;7.50;99.90;;;;;;4992844;28;20502;-75
2023/01/07 05:46:23;;;;;;;4.85;4.68;;;7.40;99.90;;;;;;4992988;28;20023;-74
2023/01/07 05:48:49;;;;;;;4.97;4.78;;;7.50;99.90;;;;;;4992529;28;20026;-75
2023/01/07 05:51:15;;;;;;;4.82;4.65;;;7.50;99.90;;;;;;4992813;28;20488;-74
2023/01/07 05:53:40;;;;;;;5.25;5.05;;;7.50;99.90;;;;;;4993083;28;20117;-74
2023/01/07 05:56:06;;;;;;;5.28;5.07;;;7.40;99.90;;;;;;4975317;28;20030;-74
2023/01/07 05:58:31;;;;;;;6.25;6.05;;;7.40;99.90;;;;;;4992455;28;20026;-74
2023/01/07 06:00:57;;;;;;;5.10;4.90;;;7.50;99.90;;;;;;4987952;28;20029;-74
2023/01/07 06:03:23;;;;;;;5.75;5.55;;;7.40;99.90;;;;;;5012030;28;20507;-73
2023/01/07 06:05:48;;;;;;;5.10;4.90;;;7.40;99.90;;;;;;5012407;28;20038;-74
2023/01/07 06:08:14;;;;;;;5.70;5.50;;;7.40;99.90;;;;;;5004990;28;20026;-73
2023/01/07 06:10:40;;;;;;;5.38;5.18;;;7.40;99.90;;;;;;4992388;28;20064;-73
2023/01/07 06:13:05;;;;;;;5.30;5.10;;;7.40;99.90;;;;;;4992302;28;20046;-73
2023/01/07 06:15:31;;;;;;;5.72;5.53;;;7.40;99.90;;;;;;5006237;28;20033;-73
2023/01/07 06:17:57;;;;;;;5.25;5.05;;;7.40;99.90;;;;;;4992256;28;20022;-72
2023/01/07 06:20:23;;;;;;;5.70;5.50;;;7.30;99.90;;;;;;4992188;28;20113;-72
2023/01/07 06:22:49;;;;;;;5.60;5.40;;;7.40;99.90;;;;;;4992322;28;20077;-75
2023/01/07 06:25:15;;;;;;;5.35;5.15;;;7.40;99.90;;;;;;4974949;28;20026;-74
2023/01/07 06:27:40;;;;;;;5.72;5.53;;;7.50;99.90;;;;;;4974653;28;20563;-73
2023/01/07 06:30:10;;;;;;;5.68;5.47;;;7.40;99.90;;;;;;4992346;28;20066;-72
2023/01/07 06:32:42;;;;;;;4.93;4.72;;;7.50;99.90;;;;;;4992122;28;20038;-73
2023/01/07 06:35:10;;;;;;;5.07;4.88;;;7.40;99.90;;;;;;5005734;28;20440;-73
2023/01/07 06:37:36;;;;;;;6.07;5.78;;;7.40;99.90;;;;;;5008582;28;20113;-73
2023/01/07 06:40:02;;;;;;;8.48;7.68;;;7.40;99.90;;;;;;5009077;28;20030;-72
2023/01/07 06:42:28;;;;;;;5.30;5.10;;;7.30;99.90;;;;;;4992175;28;20031;-72
2023/01/07 06:44:54;;;;;;;5.30;5.10;;;7.30;99.90;;;;;;4992037;28;20030;-72
2023/01/07 06:47:19;;;;;;;6.25;6.05;;;7.40;99.90;;;;;;4974774;28;20027;-73
2023/01/07 06:49:45;;;;;;;5.50;5.30;;;7.40;99.90;;;;;;5005075;28;20052;-73
2023/01/07 06:52:10;;;;;;;4.90;4.70;;;7.50;99.90;;;;;;4998671;28;20077;-72
2023/01/07 06:54:36;;;;;;;5.93;5.72;;;7.40;99.90;;;;;;4992105;28;20030;-72
2023/01/07 06:57:01;;;;;;;5.60;5.40;;;7.40;99.90;;;;;;4991666;28;20088;-72
2023/01/07 06:59:27;;;;;;;5.90;5.70;;;7.40;99.90;;;;;;4992635;28;20088;-73
2023/01/07 07:01:52;;;;;;;5.10;4.90;;;7.40;99.90;;;;;;5011261;28;20072;-73
2023/01/07 07:04:18;;;;;;;5.05;4.85;;;7.40;99.90;;;;;;4987218;28;20029;-73
2023/01/07 07:06:44;;;;;;;5.38;5.18;;;7.40;99.90;;;;;;4977004;28;20022;-73
2023/01/07 07:09:09;;;;;;;5.30;5.10;;;7.40;99.90;;;;;;4991742;28;20027;-73
2023/01/07 07:11:35;;;;;;;5.65;5.45;;;7.40;99.90;;;;;;4991879;28;20022;-73
2023/01/07 07:14:00;;;;;;;5.82;5.63;;;7.50;99.90;;;;;;4974235;28;20053;-73
2023/01/07 07:16:26;;;;;;;5.50;5.30;;;7.40;99.90;;;;;;4991794;28;20093;-72
2023/01/07 07:18:52;;;;;;;6.10;5.90;;;7.50;99.90;;;;;;4995104;28;20090;-73
2023/01/07 07:21:18;;;;;;;6.45;6.15;;;7.50;99.90;;;;;;4978029;28;20479;-73
2023/01/07 07:23:43;;;;;;;5.32;5.13;;;7.50;99.90;;;;;;4993678;28;20109;-73
2023/01/07 07:26:09;;;;;;;5.07;4.90;;;7.50;99.90;;;;;;5009405;28;20410;-72
2023/01/07 07:28:35;;;;;;;5.75;5.55;;;7.50;99.90;;;;;;5000986;28;20114;-73
2023/01/07 07:31:01;;;;;;;6.05;5.85;;;7.40;99.90;;;;;;4995514;28;20066;-77
2023/01/07 07:33:26;;;;;;;5.60;5.40;;;7.50;99.90;;;;;;4977885;28;20399;-73
2023/01/07 07:35:53;;;;;;;5.30;5.10;;;7.50;99.90;;;;;;4995338;28;20522;-73
2023/01/07 07:38:19;;;;;;;5.40;5.20;;;7.50;99.90;;;;;;4995026;28;20030;-73
2023/01/07 07:40:45;;;;;;;5.60;5.40;;;7.60;99.90;;;;;;4977764;28;20126;-73
2023/01/07 07:43:11;;;;;;;5.70;5.50;;;7.50;99.90;;;;;;4995187;28;20030;-73
2023/01/07 07:45:37;;;;;;;5.25;5.05;;;7.50;99.90;;;;;;4995203;28;20049;-74
2023/01/07 07:48:06;;;;;;;5.40;5.20;;;7.50;99.90;;;;;;4994858;28;20499;-73
2023/01/07 07:50:31;;;;;;;5.00;4.80;;;7.50;99.90;;;;;;4995057;28;20388;-73
2023/01/07 07:52:57;;;;;;;5.60;5.40;;;7.50;99.90;;;;;;4994215;28;20040;-73
2023/01/07 07:55:22;;;;;;;5.13;4.93;;;7.50;99.90;;;;;;4994947;28;20502;-74
2023/01/07 07:57:48;;;;;;;4.47;4.38;;;7.60;99.90;;;;;;4994484;28;20041;-73
2023/01/07 08:00:14;;;;;;;5.10;4.90;;;7.60;99.90;;;;;;4995233;28;20034;-73
2023/01/07 08:02:39;;;;;;;5.22;5.03;;;7.50;99.90;;;;;;4995226;28;20032;-74
2023/01/07 08:05:05;;;;;;;5.10;4.90;;;7.60;99.90;;;;;;4989779;28;20032;-73
2023/01/07 08:07:31;;;;;;;5.35;5.15;;;7.60;99.90;;;;;;4989972;28;20116;-73
2023/01/07 08:09:56;;;;;;;4.90;4.70;;;7.60;99.90;;;;;;5001950;28;20041;-73
2023/01/07 08:12:22;;;;;;;5.72;5.53;;;7.60;99.90;;;;;;5013790;28;20123;-73
2023/01/07 08:14:47;;;;;;;5.57;5.38;;;7.60;99.90;;;;;;5001924;28;20599;-73
2023/01/07 08:17:13;;;;;;;5.35;5.18;;;7.60;99.90;;;;;;4983113;28;20030;-73
2023/01/07 08:19:38;;;;;;;5.97;5.78;;;7.70;99.90;;;;;;5007724;28;20040;-73
2023/01/07 08:22:04;;;;;;;5.43;5.22;;;7.80;99.90;;;;;;5007773;28;20021;-73
2023/01/07 08:24:29;;;;;;;5.18;4.97;;;7.80;99.90;;;;;;5001733;28;20026;-73
2023/01/07 08:26:55;;;;;;;5.00;4.80;;;7.70;99.90;;;;;;5000441;28;20034;-73
2023/01/07 08:29:22;;;;;;;5.47;5.28;;;7.80;99.90;;;;;;4976699;28;20476;-73
2023/01/07 08:31:48;;;;;;;5.00;4.80;;;7.80;99.90;;;;;;4994251;28;20023;-74
2023/01/07 08:34:13;;;;;;;5.25;5.05;;;7.80;99.90;;;;;;4994341;28;20026;-73
2023/01/07 08:36:39;;;;;;;5.65;5.45;;;7.90;99.90;;;;;;5007702;28;20487;-73
2023/01/07 08:39:05;;;;;;;4.60;4.50;;;7.80;99.90;;;;;;5013092;28;20026;-73
2023/01/07 08:41:30;;;;;;;5.15;4.95;;;7.90;99.90;;;;;;5013647;28;20022;-73
2023/01/07 08:43:56;;;;;;;5.13;4.93;;;7.90;99.90;;;;;;4994245;28;20110;-73
2023/01/07 08:46:21;;;;;;;5.75;5.55;;;7.90;99.90;;;;;;4993874;28;20085;-73
2023/01/07 08:48:47;;;;;;;5.80;5.60;;;7.90;99.90;;;;;;4993275;28;20061;-73
2023/01/07 08:51:13;;;;;;;4.90;4.70;;;7.90;99.90;;;;;;4976536;28;20031;-73
2023/01/07 08:53:38;;;;;;;5.35;5.15;;;7.90;99.90;;;;;;4976137;28;20042;-73
2023/01/07 08:56:04;;;;;;;5.30;5.10;;;7.90;99.90;;;;;;4993908;28;20381;-73
2023/01/07 08:58:29;;;;;;;5.25;5.05;;;7.90;99.90;;;;;;4993064;28;20416;-73
2023/01/07 09:01:00;;;;;;;5.32;5.13;;;8.00;99.90;;;;;;5006160;28;20030;-73
2023/01/07 09:03:26;;;;;;;5.68;5.47;;;8.00;99.90;;;;;;4993806;28;20492;-73
2023/01/07 09:05:51;;;;;;;5.00;4.80;;;8.00;99.90;;;;;;4978474;28;20032;-73
2023/01/07 09:08:17;;;;;;;4.65;4.50;;;8.00;99.90;;;;;;4993439;28;20023;-73
2023/01/07 09:10:42;;;;;;;5.35;5.15;;;8.00;99.90;;;;;;4993542;28;20026;-73
2023/01/07 09:13:08;;;;;;;5.05;4.85;;;8.00;99.90;;;;;;4975864;28;20027;-73
2023/01/07 09:15:33;;;;;;;5.40;5.20;;;8.00;99.90;;;;;;4991874;28;20026;-73
2023/01/07 09:18:02;;;;;;;5.88;5.68;;;8.10;99.90;;;;;;4992545;28;20037;-73
2023/01/07 09:20:28;;;;;;;6.45;6.05;;;8.10;99.90;;;;;;4993277;28;20032;-73
2023/01/07 09:22:53;;;;;;;5.50;5.30;;;8.10;99.90;;;;;;4993642;28;20101;-73
2023/01/07 09:25:19;;;;;;;6.20;6.00;;;8.10;99.90;;;;;;4993460;28;20026;-73
2023/01/07 09:27:44;;;;;;;5.60;5.40;;;8.20;99.90;;;;;;4993091;28;20114;-73
2023/01/07 09:30:10;;;;;;;4.80;4.70;;;8.10;99.90;;;;;;4975645;28;20414;-73
2023/01/07 09:32:36;;;;;;;5.00;4.80;;;8.10;99.90;;;;;;4993094;28;20026;-73
2023/01/07 09:35:02;;;;;;;5.10;4.90;;;8.20;99.90;;;;;;4993280;28;20033;-73
2023/01/07 09:37:28;;;;;;;5.40;5.20;;;8.20;99.90;;;;;;4999406;28;20032;-73
2023/01/07 09:39:54;;;;;;;5.07;4.88;;;8.30;99.90;;;;;;5011990;28;20030;-73
2023/01/07 09:42:30;;;;;;;5.65;5.45;;;8.30;99.90;;;;;;5012489;28;20068;-73
2023/01/07 09:45:20;;;;;;;5.28;5.07;;;8.20;99.90;;;;;;5012820;28;20096;-72
2023/01/07 09:47:49;;;;;;;5.40;5.20;;;8.30;99.90;;;;;;4994348;28;20594;-72
2023/01/07 09:50:43;;;;;;;4.70;4.60;;;8.30;99.90;;;;;;5003010;28;20038;-72
2023/01/07 09:53:20;;;;;;;5.53;5.32;;;8.30;99.90;;;;;;5001447;28;20065;-72
2023/01/07 09:55:49;;;;;;;5.78;5.57;;;8.40;99.90;;;;;;4978063;28;20451;-72
2023/01/07 09:58:17;;;;;;;4.80;4.70;;;8.40;99.90;;;;;;4975895;28;20033;-73
2023/01/07 10:01:14;;;;;;;5.03;4.82;;;8.50;99.90;;;;;;4997843;28;20029;-72
2023/01/07 10:03:50;;;;;;;5.10;4.90;;;8.40;99.90;;;;;;4997752;28;20027;-72
2023/01/07 10:06:34;;;;;;;5.53;5.32;;;8.40;99.90;;;;;;5012224;28;20028;-72
2023/01/07 10:09:14;;;;;;;5.88;5.68;;;8.40;99.90;;;;;;4999419;28;20030;-72
2023/01/07 10:12:18;;;;;;;5.50;5.30;;;8.40;99.90;;;;;;4998040;28;20081;-72
2023/01/07 10:14:50;;;;;;;5.20;5.00;;;8.40;99.90;;;;;;5000478;28;20109;-71
2023/01/07 10:17:49;;;;;;;5.60;5.40;;;8.40;99.90;;;;;;5011166;28;20034;-72
2023/01/07 10:20:21;;;;;;;4.78;4.57;;;8.40;99.90;;;;;;4997168;28;20034;-73
2023/01/07 10:23:06;;;;;;;5.20;5.00;;;8.40;99.90;;;;;;4996782;28;20065;-72
2023/01/07 10:25:36;;;;;;;4.80;4.63;;;8.50;99.90;;;;;;4997877;28;20041;-72
2023/01/07 10:28:20;;;;;;;5.40;5.20;;;8.40;99.90;;;;;;4991678;28;20022;-73
2023/01/07 10:30:50;;;;;;;5.72;5.53;;;8.40;99.90;;;;;;4992154;28;20030;-72
2023/01/07 10:33:24;;;;;;;5.20;5.00;;;8.40;99.90;;;;;;4992204;28;20030;-72
2023/01/07 10:36:02;;;;;;;6.20;6.00;;;8.50;99.90;;;;;;5002266;28;20057;-72
2023/01/07 10:38:33;;;;;;;4.30;4.20;;;8.50;99.90;;;;;;4997105;28;20131;-72
2023/01/07 10:41:22;;;;;;;4.47;4.38;;;8.50;99.90;;;;;;4992173;28;20026;-72
2023/01/07 10:44:12;;;;;;;5.93;5.72;;;8.50;99.90;;;;;;4983346;28;20038;-72
2023/01/07 10:46:56;;;;;;;5.05;4.85;;;8.50;99.90;;;;;;4979809;28;20073;-71
2023/01/07 10:49:52;;;;;;;4.80;4.60;;;8.40;99.90;;;;;;5008555;28;20026;-74
2023/01/07 10:52:33;;;;;;;4.25;4.15;;;8.50;99.90;;;;;;5010564;28;20033;-71
2023/01/07 10:55:04;;;;;;;5.68;5.47;;;8.50;99.90;;;;;;4999834;28;20049;-71
2023/01/07 10:57:31;;;;;;;4.82;4.63;;;8.40;99.90;;;;;;4978589;28;20053;-74
2023/01/07 11:00:04;;;;;;;4.65;4.45;;;8.50;99.90;;;;;;5013003;28;20026;-74
2023/01/07 11:02:30;;;;;;;5.00;4.80;;;8.50;99.90;;;;;;4986303;28;20392;-73
2023/01/07 11:04:56;;;;;;;4.45;4.35;;;8.50;99.90;;;;;;4996185;28;20041;-73
2023/01/07 11:07:47;;;;;;;3.58;3.47;;;8.50;99.90;;;;;;5010092;28;20026;-73
2023/01/07 11:10:16;;;;;;;4.35;4.22;;;8.50;99.90;;;;;;5006406;28;20029;-73
2023/01/07 11:12:46;;;;;;;4.00;3.90;;;8.50;99.90;;;;;;5006071;28;20026;-73
2023/01/07 11:15:25;;;;;;;4.35;4.25;;;8.50;99.90;;;;;;5005299;28;20022;-73
2023/01/07 11:18:17;;;;;;;4.07;3.97;;;8.50;99.90;;;;;;5002067;28;20033;-74
2023/01/07 11:20:44;;;;;;;4.00;3.90;;;8.50;99.90;;;;;;4999655;28;20018;-73
2023/01/07 11:23:30;;;;;;;4.15;4.05;;;8.60;99.90;;;;;;4994007;28;20155;-74
2023/01/07 11:26:17;;;;;;;4.10;4.00;;;8.50;99.90;;;;;;5004552;28;20030;-73
2023/01/07 11:28:51;;;;;;;4.10;4.00;;;8.50;99.90;;;;;;4977953;28;20093;-73
2023/01/07 11:31:18;;;;;;;3.95;3.85;;;8.60;99.90;;;;;;4978274;28;20026;-73
2023/01/07 11:33:50;;;;;;;4.97;4.78;;;8.60;99.90;;;;;;4995356;28;20026;-73
2023/01/07 11:36:15;;;;;;;4.18;4.07;;;8.50;99.90;;;;;;4978091;28;20044;-73
2023/01/07 11:38:41;;;;;;;3.90;3.80;;;8.50;99.90;;;;;;4995428;28;20496;-73
2023/01/07 11:41:21;;;;;;;4.00;3.90;;;8.60;99.90;;;;;;4977771;28;20022;-73
2023/01/07 11:43:49;;;;;;;3.50;3.40;;;8.60;99.90;;;;;;4996586;28;20089;-73
2023/01/07 11:46:15;;;;;;;3.45;3.35;;;8.60;99.90;;;;;;4996763;28;20030;-73
2023/01/07 11:48:53;;;;;;;3.45;3.35;;;8.60;99.90;;;;;;4995174;28;20033;-74
2023/01/07 11:51:22;;;;;;;4.90;4.70;;;8.60;99.90;;;;;;4995186;28;20046;-71
2023/01/07 11:53:47;;;;;;;3.40;3.30;;;8.60;99.90;;;;;;4995319;28;20034;-73
2023/01/07 11:56:24;;;;;;;3.50;3.40;;;8.80;99.90;;;;;;4995261;28;20039;-73
2023/01/07 11:59:12;;;;;;;3.67;3.58;;;8.70;99.90;;;;;;4995415;28;20023;-73
2023/01/07 12:02:20;;;;;;;2.72;2.63;;;8.60;99.90;;;;;;5014313;28;20131;-73
2023/01/07 12:04:46;;;;;;;2.78;2.67;;;8.70;99.90;;;;;;5015241;28;20057;-73
2023/01/07 12:07:16;;;;;;;2.70;2.60;;;8.60;99.90;;;;;;4987945;28;20081;-74
2023/01/07 12:09:44;;;;;;;2.40;2.30;;;8.70;99.90;;;;;;5007356;28;20030;-73
2023/01/07 12:12:38;;;;;;;2.38;2.28;;;8.70;99.90;;;;;;4997077;28;20025;-73
2023/01/07 12:15:19;;;;;;;2.42;2.33;;;8.70;99.90;;;;;;4997053;28;20399;-73
2023/01/07 12:17:56;;;;;;;2.60;2.50;;;8.80;99.90;;;;;;4996557;28;20022;-73
2023/01/07 12:20:46;;;;;;;2.28;2.20;;;8.80;99.90;;;;;;4989976;28;20041;-73
2023/01/07 12:23:12;;;;;;;1.80;1.80;;;8.80;99.90;;;;;;5004413;28;20065;-73
2023/01/07 12:25:55;;;;;;;2.30;2.20;;;8.90;99.90;;;;;;4983824;28;20026;-73
2023/01/07 12:28:39;;;;;;;2.17;2.08;;;8.90;99.90;;;;;;4984679;28;20077;-74
2023/01/07 12:31:20;;;;;;;2.05;2.05;;;8.80;99.90;;;;;;5006278;28;20164;-73
2023/01/07 12:33:52;;;;;;;1.70;1.70;;;8.80;99.90;;;;;;4997797;28;20501;-74
2023/01/07 12:36:38;;;;;;;1.80;1.80;;;8.90;99.90;;;;;;5005869;28;20030;-74
2023/01/07 12:39:16;;;;;;;1.90;1.90;;;8.90;99.90;;;;;;4983366;28;20078;-74
2023/01/07 12:41:49;;;;;;;1.80;1.80;;;8.90;99.90;;;;;;4995775;28;20034;-74
2023/01/07 12:44:20;;;;;;;1.90;1.90;;;8.90;99.90;;;;;;5005491;28;20058;-74
2023/01/07 12:47:00;;;;;;;2.17;2.10;;;9.00;99.90;;;;;;4988686;28;20039;-74
2023/01/07 12:49:32;;;;;;;1.60;1.60;;;9.00;99.90;;;;;;5004267;28;20037;-74
2023/01/07 12:52:28;;;;;;;1.90;1.80;;;9.00;99.90;;;;;;4982858;28;20022;-74
2023/01/07 12:55:27;;;;;;;1.40;1.40;;;9.00;99.90;;;;;;5000245;28;20140;-74
2023/01/07 12:57:59;;;;;;;1.33;1.33;;;9.00;99.90;;;;;;4983729;28;20039;-74
2023/01/07 13:00:55;;;;;;;1.80;1.80;;;8.90;99.90;;;;;;4994019;28;20109;-73
2023/01/07 13:03:27;;;;;;;1.15;1.15;;;8.90;99.90;;;;;;5007255;28;20539;-74
2023/01/07 13:06:17;;;;;;;1.58;1.58;;;8.90;99.90;;;;;;5006996;28;20022;-73
2023/01/07 13:08:57;;;;;;;1.30;1.30;;;9.00;99.90;;;;;;5003182;28;20022;-74
2023/01/07 13:14:46;;;;;;;1.40;1.40;;;9.00;99.90;;;;;;4999113;28;20064;-74
2023/01/07 13:17:31;;;;;;;1.17;1.17;;;9.00;99.90;;;;;;5000616;28;20026;-74
2023/01/07 13:19:57;;;;;;;1.00;1.00;;;9.00;99.90;;;;;;5002205;28;20034;-74
2023/01/07 13:22:35;;;;;;;1.27;1.27;;;9.00;99.90;;;;;;5000270;28;20038;-74
2023/01/07 13:25:34;;;;;;;1.10;1.10;;;9.00;99.90;;;;;;5013467;28;20018;-74